Chilik Southeast Airfield

Jump to: basic info | weather | comments

Related pages: nearby airports | nearby navaids

Basic information (top)

Location: lon 43.223598, lat 78.732399, elev 4,497 ft / 1,371 m msl
Status: small_airport

Weather (top)

Current conditions for Almaty Airport 74nm (138km) W (rec'd 2014/07/28 08:00Z):

UAAA 280800Z 01004MPS 9999 BKN050CB OVC100 29/07 Q1000 R88/65D NOSIG

Airport forecast for Almaty Airport 74nm (138km) W (rec'd 2014/07/28 06:18Z):

TAF TAF UAAA 280500Z 2806/2906 26006MPS 9999 SCT050CB BKN100 TX30/2809Z TN12/2900Z 
      TEMPO 2806/2809 VRB18MPS 1000 TSRA DS SQ BKN050CB BKN100 
      TEMPO 2809/2820 VRB15MPS 3000 TSRA SQ BKN020CB OVC100 
      TEMPO 2820/2906 31005MPS 3000 -SHRA BR OVC020CB

Latest comments (top)

Spelling: OK oK its Kazakhstan♄, so you have a ... [read]

Airfield: I came across this airfield on Google, ... [read]

More... (top)

See also NOTAMs and nearby airports and navaids, or visit the Chilik Southeast Airfield page at the main OurAirports website..